Time;durP1;ratioP1;P1;durP2;ratioP2;P2;SDS_P1;SDS_P2;PMS_P1;PMS_P2;Temp;Humidity;BMP_temperature;BMP_pressure;BME280_temperature;BME280_humidity;BME280_pressure;Samples;Min_cycle;Max_cycle;Signal;HPM_P1;HPM_P2
2022/01/10 00:02:09;;;;;;;3.45;1.80;;;5.30;96.90;;;;;;9190964;19;20010;-76
2022/01/10 00:05:15;;;;;;;4.97;1.83;;;5.20;96.90;;;;;;9189433;19;20013;-76
2022/01/10 00:08:21;;;;;;;3.97;1.60;;;5.20;96.90;;;;;;9187751;19;20013;-75
2022/01/10 00:11:26;;;;;;;2.03;1.30;;;5.20;96.90;;;;;;9191093;19;20017;-75
2022/01/10 00:14:34;;;;;;;3.90;1.70;;;5.20;96.90;;;;;;9191014;19;20031;-75
2022/01/10 00:17:40;;;;;;;2.95;1.60;;;5.10;96.80;;;;;;9188825;19;20076;-75
2022/01/10 00:20:45;;;;;;;7.30;2.33;;;5.10;96.80;;;;;;9185689;19;20010;-75
2022/01/10 00:23:50;;;;;;;4.25;1.73;;;5.10;96.80;;;;;;9185765;19;20057;-76
2022/01/10 00:26:55;;;;;;;6.95;1.95;;;5.10;96.80;;;;;;9185212;19;20015;-75
2022/01/10 00:30:03;;;;;;;5.70;1.98;;;5.00;96.80;;;;;;9187120;19;20030;-76
2022/01/10 00:33:08;;;;;;;6.75;1.88;;;5.00;96.80;;;;;;9185802;19;20700;-76
2022/01/10 00:36:14;;;;;;;4.15;1.70;;;4.90;96.80;;;;;;9185811;19;20015;-75
2022/01/10 00:39:19;;;;;;;5.95;1.80;;;4.90;96.70;;;;;;9185232;19;20038;-75
2022/01/10 00:42:24;;;;;;;4.85;1.63;;;4.90;96.80;;;;;;9185745;19;20019;-75
2022/01/10 00:45:32;;;;;;;3.58;1.60;;;4.80;96.70;;;;;;9186422;19;20706;-76
2022/01/10 00:48:37;;;;;;;3.97;1.60;;;4.80;96.70;;;;;;9189021;19;20017;-75
2022/01/10 00:51:42;;;;;;;3.63;1.98;;;4.70;96.70;;;;;;9186594;19;20017;-75
2022/01/10 00:54:48;;;;;;;5.28;1.85;;;4.70;96.70;;;;;;9181884;19;20337;-74
2022/01/10 00:57:53;;;;;;;4.40;1.85;;;4.70;96.70;;;;;;9187103;19;20018;-75
2022/01/10 01:01:01;;;;;;;4.00;2.00;;;4.60;96.70;;;;;;9185163;19;20011;-75
2022/01/10 01:04:07;;;;;;;5.97;1.90;;;4.60;96.70;;;;;;9185477;19;20472;-75
2022/01/10 01:07:12;;;;;;;4.95;2.00;;;4.60;96.70;;;;;;9187103;19;20007;-75
2022/01/10 01:13:49;;;;;;;3.67;1.88;;;4.50;96.70;;;;;;9185551;19;20389;-76
2022/01/10 01:17:10;;;;;;;5.82;2.17;;;4.40;96.70;;;;;;9184933;19;20018;-74
2022/01/10 01:20:30;;;;;;;3.25;1.98;;;4.40;96.70;;;;;;9185353;19;20022;-74
2022/01/10 01:26:55;;;;;;;7.22;2.10;;;4.30;96.70;;;;;;9183517;19;20018;-75
2022/01/10 01:30:00;;;;;;;4.95;1.92;;;4.20;96.60;;;;;;9186572;19;20078;-76
2022/01/10 01:33:08;;;;;;;3.92;2.17;;;4.20;96.60;;;;;;9184938;19;20664;-75
2022/01/10 01:36:16;;;;;;;4.07;1.98;;;4.10;96.60;;;;;;9183790;19;20015;-76
2022/01/10 01:39:24;;;;;;;4.50;1.88;;;4.10;96.60;;;;;;9184969;19;20551;-75
2022/01/10 01:42:38;;;;;;;6.03;1.98;;;4.00;96.60;;;;;;9184675;19;20014;-75
2022/01/10 01:45:50;;;;;;;3.65;1.95;;;4.00;96.60;;;;;;9184905;19;20432;-75
2022/01/10 01:48:59;;;;;;;5.63;2.03;;;4.00;96.60;;;;;;9184503;19;20010;-75
2022/01/10 01:52:05;;;;;;;8.02;2.20;;;3.90;96.60;;;;;;9184377;19;20018;-75
2022/01/10 01:55:12;;;;;;;5.18;2.58;;;3.90;96.60;;;;;;9181443;19;20018;-74
2022/01/10 01:58:17;;;;;;;5.30;2.22;;;3.80;96.60;;;;;;9185535;19;20475;-76
2022/01/10 02:01:25;;;;;;;5.68;2.13;;;3.80;96.60;;;;;;9182651;19;20018;-75
2022/01/10 02:04:33;;;;;;;4.80;2.03;;;3.80;96.60;;;;;;9183786;19;20011;-76
2022/01/10 02:07:38;;;;;;;5.40;1.92;;;3.70;96.60;;;;;;9182373;19;20014;-75
2022/01/10 02:10:44;;;;;;;5.82;2.20;;;3.70;96.60;;;;;;9183567;19;20024;-75
2022/01/10 02:13:52;;;;;;;5.72;2.25;;;3.70;96.60;;;;;;9180546;19;20015;-76
2022/01/10 02:17:09;;;;;;;5.30;2.40;;;3.60;96.60;;;;;;9181187;19;20024;-74
2022/01/10 02:20:21;;;;;;;4.38;2.25;;;3.60;96.60;;;;;;9181593;19;20583;-74
2022/01/10 02:23:27;;;;;;;5.53;1.95;;;3.50;96.60;;;;;;9181738;19;20045;-74
2022/01/10 02:26:39;;;;;;;4.25;2.00;;;3.50;96.60;;;;;;9182142;19;20030;-74
2022/01/10 02:29:45;;;;;;;3.15;2.05;;;3.50;96.60;;;;;;9181298;19;20022;-74
2022/01/10 02:32:51;;;;;;;4.00;1.95;;;3.40;96.60;;;;;;9179667;19;20074;-75
2022/01/10 02:36:06;;;;;;;4.05;1.98;;;3.40;96.60;;;;;;9180972;19;20015;-74
2022/01/10 02:39:12;;;;;;;3.97;1.98;;;3.40;96.60;;;;;;9181881;19;20022;-74
2022/01/10 02:42:17;;;;;;;4.45;2.30;;;3.30;96.60;;;;;;9183357;19;20030;-74
2022/01/10 02:45:23;;;;;;;4.15;2.15;;;3.30;96.60;;;;;;9180720;19;20014;-74
2022/01/10 02:48:28;;;;;;;5.97;1.95;;;3.30;96.60;;;;;;9182857;19;20018;-74
2022/01/10 02:51:36;;;;;;;3.58;1.83;;;3.20;96.60;;;;;;9184580;19;20484;-74
2022/01/10 02:54:42;;;;;;;3.90;1.80;;;3.20;96.60;;;;;;9178968;19;20089;-74
2022/01/10 02:57:53;;;;;;;3.55;1.95;;;3.10;96.60;;;;;;9182075;19;20011;-75
2022/01/10 03:00:59;;;;;;;6.85;2.03;;;3.10;96.60;;;;;;9179831;19;20046;-75
2022/01/10 03:04:05;;;;;;;3.25;1.80;;;3.10;96.60;;;;;;9179283;19;20045;-74
2022/01/10 03:07:17;;;;;;;3.72;1.98;;;3.10;96.60;;;;;;9180113;19;20048;-75
2022/01/10 03:10:22;;;;;;;4.53;1.88;;;3.00;96.60;;;;;;9182318;19;20406;-74
2022/01/10 03:13:27;;;;;;;4.78;1.70;;;3.00;96.60;;;;;;9181497;19;20016;-74
2022/01/10 03:16:32;;;;;;;3.83;1.67;;;3.00;96.60;;;;;;9180039;19;20025;-75
2022/01/10 03:19:38;;;;;;;1.83;1.45;;;2.90;96.60;;;;;;9189383;19;20015;-74
2022/01/10 03:22:45;;;;;;;2.42;1.73;;;2.90;96.60;;;;;;9190362;19;20468;-74
2022/01/10 03:25:50;;;;;;;2.35;1.33;;;2.90;96.60;;;;;;9188266;19;20018;-74
2022/01/10 03:28:56;;;;;;;2.58;1.42;;;2.80;96.60;;;;;;9188566;19;20018;-74
2022/01/10 03:32:01;;;;;;;2.25;1.67;;;2.70;96.60;;;;;;9191058;19;20052;-74
2022/01/10 03:35:08;;;;;;;2.78;1.50;;;2.70;96.60;;;;;;9187755;19;20015;-74
2022/01/10 03:38:15;;;;;;;2.30;1.42;;;2.70;96.60;;;;;;9186765;19;20018;-74
2022/01/10 03:41:21;;;;;;;4.18;1.90;;;2.70;96.60;;;;;;9187377;19;20025;-74
2022/01/10 03:44:26;;;;;;;2.35;1.80;;;2.60;96.60;;;;;;9188866;19;20999;-74
2022/01/10 03:47:31;;;;;;;2.78;1.42;;;2.70;96.60;;;;;;9189078;19;20007;-74
2022/01/10 03:50:36;;;;;;;4.15;1.70;;;2.60;96.60;;;;;;9188291;19;20464;-73
2022/01/10 03:53:44;;;;;;;3.33;1.52;;;2.60;96.60;;;;;;9184483;19;20002;-73
2022/01/10 03:56:49;;;;;;;4.60;1.98;;;2.50;96.60;;;;;;9188871;19;20044;-73
2022/01/10 03:59:54;;;;;;;3.03;1.40;;;2.50;96.60;;;;;;9187989;19;20018;-73
2022/01/10 04:03:03;;;;;;;2.92;1.80;;;2.50;96.60;;;;;;9191281;19;20022;-73
2022/01/10 04:06:24;;;;;;;3.53;1.83;;;2.50;96.60;;;;;;9189133;19;20049;-74
2022/01/10 04:09:31;;;;;;;3.72;1.80;;;2.50;96.70;;;;;;9185046;19;20007;-73
2022/01/10 04:12:36;;;;;;;3.40;1.90;;;2.40;96.60;;;;;;9189276;19;20011;-74
2022/01/10 04:15:41;;;;;;;3.58;1.77;;;2.40;96.60;;;;;;9189509;19;20097;-74
2022/01/10 04:18:48;;;;;;;3.55;1.60;;;2.40;96.60;;;;;;9186795;19;20034;-74
2022/01/10 04:21:53;;;;;;;2.50;1.60;;;2.40;96.60;;;;;;9184600;19;20362;-73
2022/01/10 04:25:03;;;;;;;3.10;2.00;;;2.30;96.60;;;;;;9185403;19;20007;-73
2022/01/10 04:28:08;;;;;;;4.75;2.15;;;2.30;96.60;;;;;;9184164;19;20022;-73
2022/01/10 04:31:14;;;;;;;3.30;1.90;;;2.30;96.70;;;;;;9184329;19;20010;-73
2022/01/10 04:34:19;;;;;;;2.80;1.83;;;2.30;96.70;;;;;;9184750;19;20021;-73
2022/01/10 04:37:24;;;;;;;2.70;1.80;;;2.30;96.70;;;;;;9184930;19;20018;-75
2022/01/10 04:40:33;;;;;;;1.92;1.55;;;2.20;96.60;;;;;;9186293;19;20014;-74
2022/01/10 04:43:38;;;;;;;2.10;1.55;;;2.20;96.60;;;;;;9183263;19;20010;-74
2022/01/10 04:46:45;;;;;;;2.92;1.67;;;2.20;96.70;;;;;;9183411;19;20029;-74
2022/01/10 04:50:10;;;;;;;3.88;1.67;;;2.20;96.70;;;;;;9185497;19;20342;-73
2022/01/10 04:53:15;;;;;;;3.53;1.75;;;2.20;96.70;;;;;;9182235;19;20015;-74
2022/01/10 04:56:23;;;;;;;4.32;2.25;;;2.10;96.60;;;;;;9185199;19;20029;-73
2022/01/10 04:59:31;;;;;;;3.58;1.75;;;2.10;96.60;;;;;;9184217;19;20022;-74
2022/01/10 05:02:36;;;;;;;3.58;1.60;;;2.10;96.70;;;;;;9183589;19;20023;-73
2022/01/10 05:05:42;;;;;;;3.33;1.70;;;2.10;96.60;;;;;;9182881;19;20538;-74
2022/01/10 05:08:47;;;;;;;4.35;2.20;;;2.10;96.60;;;;;;9185607;19;20024;-74
2022/01/10 05:12:08;;;;;;;4.13;1.80;;;2.10;96.70;;;;;;9181945;19;20021;-74
2022/01/10 05:15:13;;;;;;;4.68;2.10;;;2.00;96.60;;;;;;9183722;19;20023;-74
2022/01/10 05:18:20;;;;;;;4.03;1.80;;;2.00;96.60;;;;;;9183412;19;20011;-74
2022/01/10 05:21:25;;;;;;;3.75;1.90;;;2.00;96.70;;;;;;9184186;19;20022;-74
2022/01/10 05:24:31;;;;;;;4.63;2.13;;;2.00;96.70;;;;;;9183823;19;19999;-74
2022/01/10 05:27:39;;;;;;;4.93;2.53;;;2.00;96.70;;;;;;9185666;19;20019;-73
2022/01/10 05:30:46;;;;;;;4.90;1.85;;;2.00;96.70;;;;;;9185187;19;20011;-73
2022/01/10 05:33:55;;;;;;;2.40;1.42;;;1.90;96.70;;;;;;9183577;19;20086;-74
2022/01/10 05:37:00;;;;;;;1.73;1.60;;;1.90;96.60;;;;;;9184300;19;20046;-74
2022/01/10 05:40:06;;;;;;;1.98;1.50;;;1.90;96.60;;;;;;9183766;19;20010;-74
2022/01/10 05:43:14;;;;;;;2.65;1.70;;;1.90;96.70;;;;;;9185667;19;20021;-73
2022/01/10 05:46:21;;;;;;;5.47;1.83;;;1.90;96.70;;;;;;9184430;19;20017;-72
2022/01/10 05:49:33;;;;;;;1.88;1.70;;;1.90;96.60;;;;;;9184828;19;20542;-73
2022/01/10 05:52:41;;;;;;;3.33;1.70;;;1.80;96.60;;;;;;9183715;19;20015;-74
2022/01/10 05:55:47;;;;;;;5.35;1.83;;;1.80;96.60;;;;;;9182010;19;20026;-73
2022/01/10 05:58:56;;;;;;;2.40;1.52;;;1.80;96.60;;;;;;9180484;19;20022;-73
2022/01/10 06:02:02;;;;;;;2.60;1.60;;;1.80;96.60;;;;;;9180474;19;20500;-73
2022/01/10 06:05:09;;;;;;;2.53;1.73;;;1.70;96.60;;;;;;9180273;19;20475;-73
2022/01/10 06:08:22;;;;;;;2.53;1.63;;;1.70;96.60;;;;;;9181687;19;20014;-73
2022/01/10 06:11:27;;;;;;;2.70;1.70;;;1.70;96.60;;;;;;9181643;19;20501;-73
2022/01/10 06:14:35;;;;;;;3.17;1.75;;;1.70;96.60;;;;;;9180780;19;20086;-73
2022/01/10 06:17:40;;;;;;;7.65;2.22;;;1.70;96.60;;;;;;9182028;19;20018;-73
2022/01/10 06:20:53;;;;;;;4.97;2.13;;;1.70;96.60;;;;;;9180844;19;20053;-74
2022/01/10 06:23:58;;;;;;;7.18;2.22;;;1.70;96.70;;;;;;9179086;19;20055;-73
2022/01/10 06:27:03;;;;;;;6.50;2.20;;;1.70;96.70;;;;;;9182103;19;20018;-72
2022/01/10 06:30:13;;;;;;;3.42;2.03;;;1.60;96.60;;;;;;9180672;19;20039;-72
2022/01/10 06:33:21;;;;;;;7.15;2.00;;;1.70;96.70;;;;;;9180449;19;20090;-73
2022/01/10 06:36:26;;;;;;;4.60;2.33;;;1.60;96.70;;;;;;9180365;19;20019;-73
2022/01/10 06:39:34;;;;;;;4.68;2.28;;;1.60;96.70;;;;;;9179575;19;20504;-73
2022/01/10 06:42:40;;;;;;;4.13;2.28;;;1.60;96.70;;;;;;9180156;19;20505;-73
2022/01/10 06:45:48;;;;;;;3.88;2.35;;;1.60;96.70;;;;;;9180647;19;20011;-74
2022/01/10 06:48:53;;;;;;;3.55;2.28;;;1.60;96.70;;;;;;9181227;19;20007;-73
2022/01/10 06:52:00;;;;;;;2.85;2.22;;;1.60;96.70;;;;;;9180402;19;20090;-73
2022/01/10 06:55:06;;;;;;;3.10;2.40;;;1.50;96.70;;;;;;9176358;19;20018;-73
2022/01/10 06:58:13;;;;;;;3.03;2.60;;;1.50;96.70;;;;;;9179442;19;20017;-73
2022/01/10 07:01:20;;;;;;;2.70;2.33;;;1.50;96.70;;;;;;9179389;19;20019;-73
2022/01/10 07:04:29;;;;;;;2.67;2.42;;;1.60;96.80;;;;;;9177868;19;20361;-73
2022/01/10 07:07:37;;;;;;;2.92;2.38;;;1.60;96.80;;;;;;9177953;19;20022;-73
2022/01/10 07:10:54;;;;;;;2.80;2.25;;;1.60;96.80;;;;;;9178942;19;20030;-72
2022/01/10 07:14:02;;;;;;;4.32;2.65;;;1.60;96.80;;;;;;9177395;19;20098;-73
2022/01/10 07:17:11;;;;;;;3.90;2.72;;;1.60;96.80;;;;;;9177738;19;20023;-73
2022/01/10 07:20:17;;;;;;;3.92;2.60;;;1.60;96.80;;;;;;9175085;19;20495;-73
2022/01/10 07:23:23;;;;;;;3.05;2.20;;;1.60;96.80;;;;;;9176892;19;20399;-73
2022/01/10 07:26:28;;;;;;;3.13;2.78;;;1.60;96.80;;;;;;9180171;19;20010;-73
2022/01/10 07:29:33;;;;;;;2.88;2.30;;;1.60;96.80;;;;;;9178855;19;20389;-72
2022/01/10 07:32:41;;;;;;;2.63;2.28;;;1.60;97.10;;;;;;9177865;19;20011;-72
2022/01/10 07:35:46;;;;;;;2.70;2.50;;;1.60;96.80;;;;;;9176704;19;20015;-72
2022/01/10 07:38:51;;;;;;;3.00;2.40;;;1.60;96.80;;;;;;9175910;19;20111;-73
2022/01/10 07:41:56;;;;;;;2.63;2.33;;;1.60;96.80;;;;;;9174379;19;20025;-73
2022/01/10 07:45:12;;;;;;;6.00;2.50;;;1.60;96.80;;;;;;9175564;19;20020;-72
2022/01/10 07:48:20;;;;;;;2.55;2.35;;;1.60;96.80;;;;;;9178178;19;20010;-73
2022/01/10 07:51:26;;;;;;;3.83;3.17;;;1.60;96.80;;;;;;9176520;19;20015;-72
2022/01/10 07:54:31;;;;;;;3.65;2.63;;;1.60;96.80;;;;;;9173690;19;20019;-72
2022/01/10 07:57:36;;;;;;;3.08;2.40;;;1.60;96.80;;;;;;9176668;19;20022;-72
2022/01/10 08:00:42;;;;;;;5.38;2.53;;;1.60;97.00;;;;;;9177898;19;20010;-71
2022/01/10 08:03:51;;;;;;;5.45;2.40;;;1.60;96.80;;;;;;9183504;19;20014;-72
2022/01/10 08:06:56;;;;;;;2.47;2.28;;;1.60;96.70;;;;;;9185666;19;20026;-71
2022/01/10 08:10:01;;;;;;;3.03;2.47;;;1.60;96.80;;;;;;9184510;19;20018;-71
2022/01/10 08:13:06;;;;;;;4.97;3.30;;;1.50;96.70;;;;;;9185703;19;20118;-71
2022/01/10 08:16:11;;;;;;;5.50;2.67;;;1.60;96.80;;;;;;9185416;19;20362;-71
2022/01/10 08:19:19;;;;;;;3.10;2.67;;;1.60;96.80;;;;;;9186579;19;20037;-71
2022/01/10 08:22:24;;;;;;;5.32;3.10;;;1.60;96.80;;;;;;9187451;19;20018;-71
2022/01/10 08:25:29;;;;;;;4.55;2.75;;;1.60;96.80;;;;;;9187289;19;20491;-72
2022/01/10 08:28:34;;;;;;;4.32;3.63;;;1.60;96.80;;;;;;9186778;19;20112;-73
2022/01/10 08:31:39;;;;;;;6.43;3.50;;;1.50;96.70;;;;;;9184765;19;20022;-73
2022/01/10 08:34:47;;;;;;;3.53;3.10;;;1.60;96.80;;;;;;9186643;19;20014;-72
2022/01/10 08:37:52;;;;;;;7.88;3.20;;;1.50;96.80;;;;;;9184810;19;20019;-73
2022/01/10 08:40:57;;;;;;;4.10;3.00;;;1.60;96.80;;;;;;9184997;19;20014;-73
2022/01/10 08:44:02;;;;;;;4.22;3.65;;;1.50;96.80;;;;;;9184479;19;20010;-72
2022/01/10 08:47:07;;;;;;;4.38;3.40;;;1.60;96.80;;;;;;9185239;19;20022;-72
2022/01/10 08:50:15;;;;;;;4.50;3.00;;;1.50;96.80;;;;;;9184237;19;20011;-72
2022/01/10 08:53:20;;;;;;;3.20;2.70;;;1.50;96.80;;;;;;9179507;19;20571;-72
2022/01/10 08:56:29;;;;;;;3.63;3.00;;;1.60;96.80;;;;;;9182542;19;20021;-72
2022/01/10 08:59:34;;;;;;;3.95;2.85;;;1.60;96.80;;;;;;9182822;19;20415;-75
2022/01/10 09:02:40;;;;;;;3.28;2.65;;;1.60;96.80;;;;;;9183664;19;20014;-75
2022/01/10 09:05:47;;;;;;;5.47;2.90;;;1.60;96.80;;;;;;9184918;19;20759;-75
2022/01/10 09:08:54;;;;;;;4.28;3.00;;;1.60;96.80;;;;;;9182513;19;20093;-75
2022/01/10 09:11:59;;;;;;;5.88;3.10;;;1.60;96.80;;;;;;9182228;19;20022;-75
2022/01/10 09:15:04;;;;;;;3.65;3.00;;;1.60;96.80;;;;;;9181188;19;20025;-75
2022/01/10 09:18:09;;;;;;;6.47;3.15;;;1.60;96.80;;;;;;9184449;19;20040;-75
2022/01/10 09:21:16;;;;;;;4.93;3.10;;;1.60;96.80;;;;;;9184099;19;20018;-75
2022/01/10 09:24:21;;;;;;;3.53;3.15;;;1.60;96.80;;;;;;9186818;19;20555;-75
2022/01/10 09:27:26;;;;;;;6.85;3.38;;;1.60;96.80;;;;;;9184489;19;20500;-75
2022/01/10 09:30:32;;;;;;;9.20;3.42;;;1.60;96.80;;;;;;9184476;19;20021;-75
2022/01/10 09:33:37;;;;;;;4.75;3.40;;;1.60;96.80;;;;;;9184523;19;20018;-75
2022/01/10 09:36:45;;;;;;;6.50;3.40;;;1.60;96.80;;;;;;9184321;19;20125;-75
2022/01/10 09:39:50;;;;;;;6.93;3.42;;;1.60;96.80;;;;;;9183794;19;20014;-75
2022/01/10 09:42:55;;;;;;;6.15;3.60;;;1.60;96.80;;;;;;9183687;19;20014;-75
2022/01/10 09:46:00;;;;;;;7.07;3.83;;;1.70;96.90;;;;;;9186086;19;20693;-76
2022/01/10 09:49:06;;;;;;;8.65;3.35;;;1.70;96.90;;;;;;9186926;19;20025;-75
2022/01/10 09:52:16;;;;;;;7.15;3.38;;;1.70;96.90;;;;;;9186060;19;20019;-76
2022/01/10 09:55:21;;;;;;;6.55;3.70;;;1.70;96.90;;;;;;9181400;19;20014;-76
2022/01/10 09:58:26;;;;;;;4.28;3.63;;;1.70;96.90;;;;;;9187391;19;20642;-76
2022/01/10 10:01:33;;;;;;;6.25;3.70;;;1.70;96.90;;;;;;9182441;19;20014;-76
2022/01/10 10:04:39;;;;;;;12.15;4.22;;;1.70;96.90;;;;;;9183107;19;20035;-76
2022/01/10 10:07:48;;;;;;;5.70;3.80;;;1.80;96.90;;;;;;9182614;19;20021;-76
2022/01/10 10:10:54;;;;;;;6.85;4.15;;;1.80;96.90;;;;;;9184101;19;20007;-76
2022/01/10 10:14:00;;;;;;;5.20;4.07;;;1.80;96.90;;;;;;9184888;19;20047;-76
2022/01/10 10:17:12;;;;;;;6.70;4.40;;;1.90;97.00;;;;;;9184419;19;20807;-76
2022/01/10 10:20:21;;;;;;;5.85;4.40;;;1.90;97.00;;;;;;9181751;19;20014;-76
2022/01/10 10:23:50;;;;;;;5.25;4.40;;;1.90;97.00;;;;;;9184673;19;20011;-76
2022/01/10 10:26:56;;;;;;;6.65;4.20;;;1.90;97.00;;;;;;9184146;19;20014;-76
2022/01/10 10:30:08;;;;;;;5.60;4.05;;;2.00;97.00;;;;;;9184712;19;20030;-77
2022/01/10 10:33:15;;;;;;;7.40;5.22;;;2.00;97.00;;;;;;9183077;19;20603;-76
2022/01/10 10:36:25;;;;;;;19.85;4.80;;;2.00;97.10;;;;;;9185218;19;20108;-78
2022/01/10 10:39:38;;;;;;;4.68;4.05;;;2.10;97.10;;;;;;9182608;19;20361;-77
2022/01/10 10:42:45;;;;;;;9.40;4.40;;;2.10;97.10;;;;;;9182352;19;20030;-77
2022/01/10 10:45:51;;;;;;;5.55;3.80;;;2.10;97.10;;;;;;9180104;19;20361;-78
2022/01/10 10:49:03;;;;;;;6.53;4.20;;;2.10;97.00;;;;;;9178120;19;20081;-77
2022/01/10 10:52:11;;;;;;;5.55;4.20;;;2.20;97.10;;;;;;9181103;19;20022;-77
2022/01/10 10:55:21;;;;;;;6.03;4.32;;;2.20;97.10;;;;;;9178123;19;20092;-77
2022/01/10 10:58:26;;;;;;;8.48;4.50;;;2.20;97.10;;;;;;9180870;19;20017;-77
2022/01/10 11:01:32;;;;;;;7.38;4.22;;;2.20;97.10;;;;;;9180395;19;20700;-77
2022/01/10 11:04:38;;;;;;;5.75;4.25;;;2.30;97.10;;;;;;9176043;19;20018;-78
2022/01/10 11:07:43;;;;;;;8.68;4.53;;;2.30;97.10;;;;;;9177391;19;20010;-77
2022/01/10 11:10:55;;;;;;;5.88;4.80;;;2.40;97.10;;;;;;9181537;19;20011;-78
2022/01/10 11:14:00;;;;;;;6.07;4.25;;;2.40;97.10;;;;;;9182123;19;20014;-77
2022/01/10 11:17:06;;;;;;;5.38;4.53;;;2.40;97.10;;;;;;9179573;19;20653;-77
2022/01/10 11:20:16;;;;;;;9.55;5.05;;;2.50;97.10;;;;;;9182101;19;20025;-77
2022/01/10 11:23:24;;;;;;;8.95;4.40;;;2.50;97.10;;;;;;9180058;19;20015;-79
2022/01/10 11:26:41;;;;;;;6.25;4.80;;;2.50;97.10;;;;;;9180731;19;20504;-77
2022/01/10 11:29:47;;;;;;;6.53;4.13;;;2.50;97.10;;;;;;9177484;19;20014;-78
2022/01/10 11:33:01;;;;;;;5.20;4.20;;;2.60;97.10;;;;;;9179031;19;20021;-77
2022/01/10 11:36:29;;;;;;;5.85;4.50;;;2.60;97.10;;;;;;9178796;19;20019;-78
2022/01/10 11:39:38;;;;;;;5.60;4.50;;;2.60;97.10;;;;;;9184475;19;20015;-77
2022/01/10 11:42:59;;;;;;;6.30;4.82;;;2.60;97.10;;;;;;9185656;19;20338;-77
2022/01/10 11:46:13;;;;;;;5.18;4.68;;;2.70;97.10;;;;;;9186965;19;20022;-79
2022/01/10 11:49:21;;;;;;;9.00;4.68;;;2.70;97.10;;;;;;9187139;19;20019;-78
2022/01/10 11:52:30;;;;;;;11.45;4.80;;;2.70;97.10;;;;;;9186952;19;20074;-78
2022/01/10 11:55:41;;;;;;;6.22;4.95;;;2.80;97.10;;;;;;9183940;19;20030;-78
2022/01/10 11:59:15;;;;;;;5.40;4.82;;;2.80;97.10;;;;;;9186861;19;20006;-78
2022/01/10 12:02:26;;;;;;;6.28;4.78;;;2.80;97.10;;;;;;9184240;19;20018;-78
2022/01/10 12:05:37;;;;;;;5.55;4.95;;;2.90;97.20;;;;;;9186331;19;20026;-78
2022/01/10 12:08:43;;;;;;;6.30;5.03;;;2.90;97.20;;;;;;9185753;19;20469;-78
2022/01/10 12:11:52;;;;;;;6.75;5.10;;;3.00;97.20;;;;;;9186482;19;20026;-78
2022/01/10 12:15:08;;;;;;;11.75;5.47;;;3.00;97.20;;;;;;9186919;19;20085;-78
2022/01/10 12:18:15;;;;;;;8.85;5.82;;;3.00;97.20;;;;;;9184642;19;20022;-76
2022/01/10 12:21:22;;;;;;;6.82;4.95;;;3.10;97.20;;;;;;9185413;19;20014;-77
2022/01/10 12:24:27;;;;;;;9.50;5.35;;;3.10;97.20;;;;;;9186423;19;20018;-77
2022/01/10 12:27:34;;;;;;;11.05;5.50;;;3.10;97.20;;;;;;9186844;19;20492;-78
2022/01/10 12:30:44;;;;;;;24.95;5.65;;;3.20;97.20;;;;;;9185864;19;20026;-77
2022/01/10 12:33:51;;;;;;;9.98;5.30;;;3.10;97.20;;;;;;9186332;19;20019;-76
2022/01/10 12:36:56;;;;;;;7.68;5.22;;;3.20;97.20;;;;;;9186737;19;20018;-78
2022/01/10 12:40:01;;;;;;;7.03;5.55;;;3.20;97.20;;;;;;9186915;19;20019;-77
2022/01/10 12:43:07;;;;;;;10.52;6.28;;;3.30;97.20;;;;;;9183027;19;20476;-76
2022/01/10 12:46:16;;;;;;;6.05;5.43;;;3.20;97.20;;;;;;9186512;19;20477;-77
2022/01/10 12:49:21;;;;;;;8.55;5.53;;;3.30;97.20;;;;;;9183866;19;20006;-77
2022/01/10 12:52:26;;;;;;;7.45;5.25;;;3.30;97.20;;;;;;9187705;19;20021;-77
2022/01/10 12:55:31;;;;;;;8.20;5.70;;;3.40;97.30;;;;;;9184537;19;20332;-76
2022/01/10 12:58:37;;;;;;;6.85;5.57;;;3.40;97.20;;;;;;9185710;19;20356;-76
2022/01/10 13:01:45;;;;;;;14.18;5.60;;;3.40;97.20;;;;;;9183510;19;20025;-77
2022/01/10 13:04:51;;;;;;;8.52;5.68;;;3.40;97.20;;;;;;9185029;19;20356;-77
2022/01/10 13:07:58;;;;;;;7.18;5.50;;;3.50;97.20;;;;;;9182366;19;20026;-77
2022/01/10 13:11:08;;;;;;;7.40;5.47;;;3.50;97.20;;;;;;9182595;19;20011;-77
2022/01/10 13:14:15;;;;;;;6.70;4.90;;;3.50;97.20;;;;;;9182442;19;20014;-78
2022/01/10 13:17:27;;;;;;;6.68;5.25;;;3.50;97.20;;;;;;9183457;19;20029;-77
2022/01/10 13:20:35;;;;;;;7.60;5.32;;;3.60;97.20;;;;;;9182975;19;20360;-77
2022/01/10 13:23:41;;;;;;;9.38;5.20;;;3.60;97.20;;;;;;9183151;19;20015;-78
2022/01/10 13:27:01;;;;;;;11.20;5.85;;;3.60;97.20;;;;;;9185038;19;20017;-78
2022/01/10 13:30:21;;;;;;;6.95;5.05;;;3.70;97.30;;;;;;9183330;19;20015;-78
2022/01/10 13:33:49;;;;;;;8.13;5.43;;;3.70;97.30;;;;;;9181647;19;20021;-76
2022/01/10 13:37:20;;;;;;;7.03;5.40;;;3.70;97.20;;;;;;9181656;19;20070;-78
2022/01/10 13:40:41;;;;;;;6.43;5.32;;;3.70;97.20;;;;;;9186284;19;20377;-77
2022/01/10 13:43:54;;;;;;;7.68;5.15;;;3.70;97.20;;;;;;9181072;19;20094;-78
2022/01/10 13:47:11;;;;;;;7.00;5.35;;;3.80;97.30;;;;;;9181013;19;20398;-77
2022/01/10 13:50:31;;;;;;;8.02;5.88;;;3.80;97.30;;;;;;9184023;19;20101;-77
2022/01/10 13:53:50;;;;;;;8.63;5.45;;;3.80;97.20;;;;;;9181802;19;20026;-76
2022/01/10 13:57:22;;;;;;;7.97;5.32;;;3.80;97.20;;;;;;9183667;19;20019;-77
2022/01/10 14:00:32;;;;;;;7.38;5.30;;;3.80;97.20;;;;;;9183238;19;20053;-77
2022/01/10 14:03:40;;;;;;;22.80;6.10;;;3.80;97.20;;;;;;9182691;19;20022;-78
2022/01/10 14:06:55;;;;;;;10.73;5.78;;;3.90;97.20;;;;;;9183756;19;20018;-78
2022/01/10 14:10:12;;;;;;;6.30;5.18;;;3.90;97.20;;;;;;9183681;19;20045;-78
2022/01/10 14:13:29;;;;;;;9.45;5.75;;;3.90;97.20;;;;;;9182126;19;20757;-78
2022/01/10 14:16:39;;;;;;;9.40;6.72;;;3.90;97.20;;;;;;9182592;19;20011;-79
2022/01/10 14:19:45;;;;;;;11.98;6.32;;;3.90;97.20;;;;;;9183971;19;20018;-78
2022/01/10 14:22:54;;;;;;;7.65;6.15;;;3.90;97.20;;;;;;9182270;19;20018;-78
2022/01/10 14:25:59;;;;;;;17.45;6.25;;;3.90;97.20;;;;;;9182933;19;20022;-79
2022/01/10 14:29:07;;;;;;;9.20;6.78;;;3.90;97.20;;;;;;9183533;19;20023;-79
2022/01/10 14:32:13;;;;;;;9.25;6.80;;;3.90;97.20;;;;;;9184881;19;20078;-78
2022/01/10 14:35:19;;;;;;;8.73;6.30;;;3.90;97.20;;;;;;9182843;19;20033;-78
2022/01/10 14:38:29;;;;;;;8.40;6.22;;;3.90;97.10;;;;;;9182860;19;20011;-78
2022/01/10 14:41:35;;;;;;;9.90;6.65;;;3.90;97.20;;;;;;9179730;19;20507;-79
2022/01/10 14:44:42;;;;;;;9.60;6.82;;;3.90;97.20;;;;;;9180622;19;20014;-78
2022/01/10 14:47:50;;;;;;;11.68;7.60;;;3.90;97.20;;;;;;9179715;19;20007;-78
2022/01/10 14:50:57;;;;;;;7.93;6.47;;;3.90;97.20;;;;;;9180693;19;20015;-78
2022/01/10 14:54:06;;;;;;;13.90;7.20;;;3.90;97.20;;;;;;9176056;19;20010;-77
2022/01/10 14:57:15;;;;;;;10.98;6.72;;;3.90;97.20;;;;;;9180372;19;20049;-77
2022/01/10 15:00:21;;;;;;;12.50;7.38;;;3.90;97.20;;;;;;9179185;19;20015;-78
2022/01/10 15:03:28;;;;;;;11.30;7.50;;;4.00;97.20;;;;;;9178916;19;20089;-77
2022/01/10 15:06:35;;;;;;;11.55;7.32;;;3.90;97.20;;;;;;9179395;19;20014;-78
2022/01/10 15:09:53;;;;;;;10.23;7.05;;;4.00;97.20;;;;;;9178941;19;20011;-77
2022/01/10 15:13:06;;;;;;;10.50;6.95;;;3.90;97.20;;;;;;9178385;19;20030;-77
2022/01/10 15:16:12;;;;;;;11.82;7.30;;;4.00;97.20;;;;;;9181249;19;20019;-78
2022/01/10 15:19:19;;;;;;;10.48;6.80;;;4.00;97.20;;;;;;9179008;19;20108;-78
2022/01/10 15:22:26;;;;;;;10.65;7.10;;;4.00;97.20;;;;;;9177632;19;20018;-78
2022/01/10 15:25:39;;;;;;;11.25;6.93;;;4.00;97.20;;;;;;9182213;19;20342;-78
2022/01/10 15:28:49;;;;;;;10.18;6.85;;;4.00;97.50;;;;;;9180032;19;20022;-78
2022/01/10 15:31:54;;;;;;;11.90;7.00;;;4.00;97.20;;;;;;9179831;19;20377;-78
2022/01/10 15:35:06;;;;;;;12.23;6.78;;;4.00;97.20;;;;;;9182930;19;20473;-77
2022/01/10 15:38:14;;;;;;;9.50;6.80;;;4.00;97.20;;;;;;9183002;19;20017;-78
2022/01/10 15:41:23;;;;;;;9.68;6.30;;;4.00;97.20;;;;;;9180063;19;20018;-78
2022/01/10 15:44:30;;;;;;;22.38;7.00;;;4.00;97.20;;;;;;9177116;19;20368;-78
2022/01/10 15:47:37;;;;;;;11.10;6.32;;;4.00;97.20;;;;;;9180319;19;20014;-78
2022/01/10 15:50:49;;;;;;;11.68;6.68;;;4.00;97.20;;;;;;9175656;19;20014;-78
2022/01/10 15:53:54;;;;;;;10.43;6.70;;;4.00;97.20;;;;;;9175717;19;20085;-77
2022/01/10 15:57:02;;;;;;;8.80;6.82;;;4.00;97.20;;;;;;9179538;19;20118;-78
2022/01/10 16:00:11;;;;;;;9.00;6.35;;;4.00;97.20;;;;;;9177876;19;20015;-77
2022/01/10 16:03:16;;;;;;;10.02;6.63;;;3.90;97.20;;;;;;9175127;19;20010;-78
2022/01/10 16:06:23;;;;;;;10.52;6.72;;;3.90;97.20;;;;;;9179229;19;20380;-78
2022/01/10 16:09:32;;;;;;;7.75;5.63;;;3.90;97.20;;;;;;9175821;19;20022;-78
2022/01/10 16:12:46;;;;;;;7.18;6.00;;;4.00;97.20;;;;;;9177800;19;20030;-78
2022/01/10 16:15:52;;;;;;;7.57;5.03;;;4.00;97.20;;;;;;9176465;19;20878;-78
2022/01/10 16:18:57;;;;;;;7.28;4.93;;;3.90;97.20;;;;;;9177469;19;20014;-78
2022/01/10 16:22:02;;;;;;;7.20;5.15;;;3.90;97.20;;;;;;9180177;19;20010;-77
2022/01/10 16:25:08;;;;;;;8.80;4.78;;;3.90;97.20;;;;;;9185017;19;20021;-78
2022/01/10 16:28:16;;;;;;;10.00;5.00;;;3.90;97.20;;;;;;9184428;19;20015;-77
2022/01/10 16:31:21;;;;;;;11.60;5.13;;;3.90;97.20;;;;;;9182518;19;20373;-77
2022/01/10 16:34:26;;;;;;;8.07;5.40;;;3.90;97.20;;;;;;9179841;19;20496;-78
2022/01/10 16:37:36;;;;;;;9.48;5.00;;;3.90;97.20;;;;;;9182815;19;20015;-78